Amberson, Pennsylvania
Current Conditions -  °F | °C
As of 8:53 AM on Monday 20 Oct 2014 (Local Time) from KHGR Reporting Station
Clear Clear  
Wind Chill:   Ceiling: Unl
Heat Index:   Visibility: 10mi
Dew Point:   Wind: 6mph
Humidity: 76%   Direction: 140°SE
Pressure: 30.1"   Gusts: NA
Location:  40.17°N, 77.68°W
Report Text: KHGR 201253Z 14005KT 10SM CLR 06/02 A3010 RMK AO2 SLP204 T00610022
Loading
Personal Weather Stations






























Interactive Weather Map
Tropical Storm Tracking
New forecast layout! Learn more

10-Day Weather Forecast

Advertisements
Track Severe Weather on mobile